createdAt,value
2024-05-09T00:00:01.568Z,13.04
2024-05-09T00:05:29.958Z,13.04
2024-05-09T00:10:50.960Z,12.93
2024-05-09T00:16:11.986Z,12.84
2024-05-09T00:21:32.796Z,12.82
2024-05-09T00:26:53.484Z,12.83
2024-05-09T00:32:14.196Z,12.85
2024-05-09T00:37:34.653Z,12.92
2024-05-09T00:42:55.396Z,12.87
2024-05-09T00:48:19.736Z,12.93
2024-05-09T00:53:42.236Z,13.09
2024-05-09T00:59:03.071Z,13.17
2024-05-09T01:04:23.644Z,13.09
2024-05-09T01:09:44.075Z,13.02
2024-05-09T01:15:05.760Z,12.96
2024-05-09T01:20:37.034Z,12.98
2024-05-09T01:26:02.614Z,12.94
2024-05-09T01:31:23.174Z,12.83
2024-05-09T01:36:43.539Z,12.84
2024-05-09T01:42:09.471Z,12.89
2024-05-09T01:47:30.278Z,12.92
2024-05-09T01:52:51.151Z,12.82
2024-05-09T01:58:12.065Z,12.73
2024-05-09T02:03:32.966Z,12.59
2024-05-09T02:08:53.491Z,12.52
2024-05-09T02:14:14.001Z,12.51
2024-05-09T02:19:34.958Z,12.48
2024-05-09T02:24:55.362Z,12.42
2024-05-09T02:30:22.910Z,12.39
2024-05-09T02:35:51.096Z,12.17
2024-05-09T02:41:11.993Z,12.25
2024-05-09T02:46:32.554Z,12.19
2024-05-09T02:51:53.212Z,12.13
2024-05-09T02:57:13.629Z,12.11
2024-05-09T03:02:34.568Z,12.09
2024-05-09T03:07:55.061Z,12.11
2024-05-09T03:13:16.391Z,11.99
2024-05-09T03:18:37.278Z,11.98
2024-05-09T03:23:58.153Z,11.95
2024-05-09T03:29:19.052Z,11.90
2024-05-09T03:34:39.709Z,11.86
2024-05-09T03:40:07.349Z,11.84
2024-05-09T03:45:32.574Z,11.83
2024-05-09T03:50:53.255Z,11.79
2024-05-09T03:56:14.220Z,11.79
2024-05-09T04:01:34.689Z,11.83
2024-05-09T04:06:55.796Z,11.84
2024-05-09T04:12:16.715Z,11.89
2024-05-09T04:17:37.762Z,11.92
2024-05-09T04:22:58.534Z,11.98
2024-05-09T04:28:19.253Z,12.05
2024-05-09T04:33:40.099Z,12.14
2024-05-09T04:39:00.779Z,12.17
2024-05-09T04:44:21.426Z,12.24
2024-05-09T04:49:42.583Z,12.28
2024-05-09T04:55:03.420Z,12.35
2024-05-09T05:00:32.460Z,12.53
2024-05-09T05:05:57.130Z,12.65
2024-05-09T05:11:18.234Z,12.88
2024-05-09T05:16:38.529Z,12.96
2024-05-09T05:21:59.219Z,12.94
2024-05-09T05:27:19.836Z,13.02
2024-05-09T05:32:40.687Z,13.11
2024-05-09T05:38:01.567Z,13.18
2024-05-09T05:43:22.307Z,13.27
2024-05-09T05:48:42.993Z,13.33
2024-05-09T05:54:04.941Z,13.40
2024-05-09T05:59:28.050Z,13.35
2024-05-09T06:04:48.949Z,13.55
2024-05-09T06:10:17.197Z,13.73
2024-05-09T06:15:42.552Z,13.97
2024-05-09T06:21:03.528Z,14.12
2024-05-09T06:26:24.039Z,14.35
2024-05-09T06:31:44.879Z,14.39
2024-05-09T06:37:05.515Z,14.52
2024-05-09T06:42:26.295Z,14.41
2024-05-09T06:47:46.911Z,14.48
2024-05-09T06:53:08.601Z,14.56
2024-05-09T06:58:29.248Z,14.68
2024-05-09T07:03:49.813Z,14.90
2024-05-09T07:09:10.693Z,15.04
2024-05-09T07:14:32.766Z,14.95
2024-05-09T07:19:54.801Z,14.81
2024-05-09T07:25:15.422Z,14.88
2024-05-09T07:30:36.093Z,14.99
2024-05-09T07:35:57.048Z,14.88
2024-05-09T07:41:17.706Z,15.17
2024-05-09T07:47:47.299Z,15.31
2024-05-09T07:57:42.544Z,15.56
2024-05-09T08:03:04.022Z,15.78
2024-05-09T08:08:24.996Z,16.47
2024-05-09T08:13:46.176Z,16.32
2024-05-09T08:19:06.738Z,16.31
2024-05-09T08:24:27.200Z,16.24
2024-05-09T08:29:47.819Z,16.60
2024-05-09T08:35:08.480Z,17.24
2024-05-09T08:40:34.441Z,17.21
2024-05-09T08:45:59.131Z,17.10
2024-05-09T08:51:20.156Z,17.20
2024-05-09T08:56:45.937Z,17.22
2024-05-09T09:02:06.532Z,17.25
2024-05-09T09:07:28.729Z,17.47
2024-05-09T09:12:57.791Z,17.13
2024-05-09T09:18:18.655Z,17.30
2024-05-09T09:23:40.109Z,17.04
2024-05-09T09:29:04.414Z,17.24
2024-05-09T09:34:31.196Z,17.56
2024-05-09T09:39:53.206Z,17.58
2024-05-09T09:45:15.173Z,17.47
2024-05-09T09:50:36.156Z,17.78
2024-05-09T09:55:56.864Z,17.97
2024-05-09T10:01:17.408Z,17.97
2024-05-09T10:06:42.666Z,18.11
2024-05-09T10:12:12.132Z,19.25
2024-05-09T10:17:33.526Z,19.50
2024-05-09T10:22:54.225Z,18.93
2024-05-09T10:28:15.702Z,19.29
2024-05-09T10:33:51.870Z,20.01
2024-05-09T10:39:13.487Z,19.21
2024-05-09T10:44:37.911Z,19.47
2024-05-09T10:49:58.436Z,19.37
2024-05-09T10:55:19.295Z,19.24
2024-05-09T11:00:40.825Z,19.52
2024-05-09T11:06:02.478Z,19.51
2024-05-09T11:11:23.014Z,19.73
2024-05-09T11:16:43.561Z,20.37
2024-05-09T11:22:04.997Z,20.55
2024-05-09T11:27:25.788Z,21.35
2024-05-09T11:32:46.794Z,21.07
2024-05-09T11:38:07.580Z,21.19
2024-05-09T11:43:29.300Z,20.55
2024-05-09T11:48:50.449Z,19.97
2024-05-09T11:54:10.897Z,20.06
2024-05-09T11:59:31.643Z,19.91
2024-05-09T12:04:52.418Z,19.37
2024-05-09T12:10:16.849Z,19.15
2024-05-09T12:15:40.331Z,19.05
2024-05-09T12:21:01.855Z,18.87
2024-05-09T12:26:22.236Z,19.14
2024-05-09T12:31:43.033Z,19.31
2024-05-09T12:37:04.159Z,18.49
2024-05-09T12:42:27.487Z,18.70
2024-05-09T12:47:49.705Z,18.29
2024-05-09T12:53:10.908Z,17.86
2024-05-09T12:58:31.700Z,17.59
2024-05-09T13:03:52.337Z,17.00
2024-05-09T13:09:12.708Z,16.48
2024-05-09T13:14:33.200Z,16.10
2024-05-09T13:19:53.724Z,15.92
2024-05-09T13:25:14.870Z,15.96
2024-05-09T13:30:40.301Z,15.69
2024-05-09T13:36:02.484Z,16.10
2024-05-09T13:41:22.815Z,16.31
2024-05-09T13:46:43.634Z,16.02
2024-05-09T13:52:04.808Z,15.57
2024-05-09T13:57:25.805Z,15.40
2024-05-09T14:02:46.980Z,15.21
2024-05-09T14:08:08.637Z,15.24
2024-05-09T14:13:29.004Z,15.36
2024-05-09T14:18:50.227Z,15.53
2024-05-09T14:24:10.845Z,15.62
2024-05-09T14:29:33.627Z,15.93
2024-05-09T14:34:54.460Z,16.24
2024-05-09T14:40:30.414Z,16.47
2024-05-09T14:45:56.565Z,16.41
2024-05-09T14:51:17.502Z,16.32
2024-05-09T14:56:38.091Z,16.28
2024-05-09T15:01:58.800Z,16.27
2024-05-09T15:07:19.287Z,16.34
2024-05-09T15:12:39.877Z,16.24
2024-05-09T15:18:00.763Z,16.13
2024-05-09T15:23:21.082Z,15.67
2024-05-09T15:28:41.696Z,15.42
2024-05-09T15:34:02.185Z,15.43
2024-05-09T15:39:25.217Z,15.39
2024-05-09T15:44:52.389Z,15.48
2024-05-09T15:50:20.302Z,15.38
2024-05-09T15:55:48.567Z,15.11
2024-05-09T16:01:09.004Z,15.14
2024-05-09T16:06:29.633Z,15.40
2024-05-09T16:11:50.290Z,15.53
2024-05-09T16:17:11.145Z,15.44
2024-05-09T16:22:31.976Z,15.37
2024-05-09T16:27:52.681Z,15.31
2024-05-09T16:33:13.661Z,15.03
2024-05-09T16:38:34.598Z,14.86
2024-05-09T16:43:55.475Z,14.68
2024-05-09T16:49:16.036Z,14.55
2024-05-09T16:54:36.581Z,14.43
2024-05-09T16:59:57.054Z,14.21
2024-05-09T17:05:18.153Z,14.16
2024-05-09T17:10:38.689Z,14.38
2024-05-09T17:15:59.717Z,14.47
2024-05-09T17:21:19.987Z,14.48
2024-05-09T17:26:41.761Z,14.40
2024-05-09T17:32:02.427Z,14.46
2024-05-09T17:37:23.356Z,14.36
2024-05-09T17:42:44.410Z,14.40
2024-05-09T17:48:05.644Z,14.30
2024-05-09T17:53:26.791Z,14.37
2024-05-09T17:58:48.872Z,14.49
2024-05-09T18:04:10.174Z,14.50
2024-05-09T18:09:30.767Z,14.71
2024-05-09T18:14:51.832Z,15.16
2024-05-09T18:20:19.688Z,15.28
2024-05-09T18:25:48.676Z,15.17
2024-05-09T18:31:09.270Z,15.01
2024-05-09T18:36:30.141Z,14.68
2024-05-09T18:41:50.809Z,14.68
2024-05-09T18:47:11.464Z,14.63
2024-05-09T18:52:32.462Z,14.42
2024-05-09T18:57:53.111Z,14.44
2024-05-09T19:03:14.874Z,14.50
2024-05-09T19:08:36.236Z,14.61
2024-05-09T19:14:03.497Z,14.62
2024-05-09T19:19:24.121Z,14.54
2024-05-09T19:24:44.774Z,14.43
2024-05-09T19:30:13.887Z,14.46
2024-05-09T19:35:38.845Z,14.45
2024-05-09T19:41:00.055Z,14.45
2024-05-09T19:46:20.687Z,14.45
2024-05-09T19:51:41.375Z,14.42
2024-05-09T19:57:01.999Z,14.39
2024-05-09T20:02:22.836Z,14.43
2024-05-09T20:07:43.411Z,14.41
2024-05-09T20:13:06.666Z,14.40
2024-05-09T20:18:28.700Z,14.40
2024-05-09T20:23:49.441Z,14.40
2024-05-09T20:29:10.038Z,14.35
2024-05-09T20:34:30.799Z,14.25
2024-05-09T20:39:51.517Z,14.12
2024-05-09T20:45:13.598Z,14.04
2024-05-09T20:50:39.522Z,13.93
2024-05-09T20:56:02.611Z,13.83
2024-05-09T21:01:23.361Z,13.75
2024-05-09T21:06:44.352Z,13.73
2024-05-09T21:12:05.346Z,13.71
2024-05-09T21:17:26.207Z,13.72
2024-05-09T21:22:46.694Z,13.74
2024-05-09T21:28:07.395Z,13.72
2024-05-09T21:33:28.199Z,13.66
2024-05-09T21:38:48.877Z,13.61
2024-05-09T21:44:09.243Z,13.59
2024-05-09T21:49:30.157Z,13.63
2024-05-09T21:54:50.773Z,13.65
2024-05-09T22:00:27.961Z,13.64
2024-05-09T22:05:55.444Z,13.62
2024-05-09T22:11:16.099Z,13.54
2024-05-09T22:16:41.047Z,13.41
2024-05-09T22:22:01.563Z,13.39
2024-05-09T22:27:22.409Z,13.36
2024-05-09T22:32:43.155Z,13.34
2024-05-09T22:38:09.684Z,13.29
2024-05-09T22:43:30.533Z,13.30
2024-05-09T22:48:51.229Z,13.29
2024-05-09T22:54:12.234Z,13.25
2024-05-09T22:59:32.592Z,13.25
2024-05-09T23:04:53.138Z,13.23
2024-05-09T23:10:20.944Z,13.18
2024-05-09T23:15:48.210Z,13.16
2024-05-09T23:21:08.825Z,13.16
2024-05-09T23:26:29.410Z,13.16
2024-05-09T23:31:50.166Z,13.09
2024-05-09T23:37:10.927Z,13.01
2024-05-09T23:42:31.512Z,13.01
2024-05-09T23:47:53.141Z,12.96
2024-05-09T23:53:14.413Z,12.97
2024-05-09T23:58:34.741Z,12.92
